createdAt,value
2018-06-02T00:00:00.466Z,97859.16
2018-06-02T00:02:26.719Z,97864.15
2018-06-02T00:04:52.982Z,97861.55
2018-06-02T00:07:19.218Z,97870.96
2018-06-02T00:09:45.464Z,97866.48
2018-06-02T00:12:11.740Z,97872.45
2018-06-02T00:14:37.999Z,97866.11
2018-06-02T00:17:04.241Z,97866.56
2018-06-02T00:19:30.532Z,97862.09
2018-06-02T00:21:57.585Z,97860.28
2018-06-02T00:24:23.828Z,97866.10
2018-06-02T00:26:50.339Z,97864.12
2018-06-02T00:29:16.603Z,97868.13
2018-06-02T00:31:42.859Z,97863.50
2018-06-02T00:34:09.128Z,97860.81
2018-06-02T00:36:35.377Z,97853.59
2018-06-02T00:39:01.628Z,97861.88
2018-06-02T00:41:27.957Z,97868.94
2018-06-02T00:43:54.210Z,97866.09
2018-06-02T00:46:20.506Z,97862.94
2018-06-02T00:48:46.796Z,97864.04
2018-06-02T00:51:13.082Z,97863.36
2018-06-02T00:53:39.323Z,97866.36
2018-06-02T00:56:05.611Z,97866.97
2018-06-02T00:58:31.882Z,97865.56
2018-06-02T01:00:58.171Z,97865.36
2018-06-02T01:03:24.443Z,97865.14
2018-06-02T01:05:50.691Z,97870.50
2018-06-02T01:08:16.962Z,97862.75
2018-06-02T01:10:43.241Z,97865.90
2018-06-02T01:13:09.493Z,97863.12
2018-06-02T01:15:35.751Z,97866.55
2018-06-02T01:18:02.007Z,97862.02
2018-06-02T01:20:28.243Z,97860.91
2018-06-02T01:22:54.496Z,97860.00
2018-06-02T01:25:20.788Z,97855.35
2018-06-02T01:27:47.058Z,97867.53
2018-06-02T01:30:13.310Z,97864.66
2018-06-02T01:32:39.574Z,97864.45
2018-06-02T01:35:05.826Z,97866.73
2018-06-02T01:37:32.066Z,97860.21
2018-06-02T01:39:58.393Z,97856.14
2018-06-02T01:42:24.806Z,97862.23
2018-06-02T01:44:51.058Z,97862.48
2018-06-02T01:47:17.326Z,97861.56
2018-06-02T01:49:43.579Z,97862.31
2018-06-02T01:52:09.816Z,97858.05
2018-06-02T01:54:36.142Z,97865.80
2018-06-02T01:57:02.390Z,97867.97
2018-06-02T01:59:28.698Z,97870.91
2018-06-02T02:01:54.970Z,97864.37
2018-06-02T02:04:21.226Z,97865.34
2018-06-02T02:06:47.475Z,97870.74
2018-06-02T02:09:13.747Z,97866.56
2018-06-02T02:11:40.006Z,97870.41
2018-06-02T02:14:06.276Z,97867.58
2018-06-02T02:16:32.552Z,97870.67
2018-06-02T02:18:58.826Z,97870.27
2018-06-02T02:21:25.067Z,97868.25
2018-06-02T02:23:51.350Z,97869.56
2018-06-02T02:26:17.629Z,97867.86
2018-06-02T02:28:43.932Z,97871.45
2018-06-02T02:31:10.236Z,97872.87
2018-06-02T02:33:36.480Z,97868.34
2018-06-02T02:36:02.723Z,97867.88
2018-06-02T02:38:29.003Z,97871.23
2018-06-02T02:40:55.264Z,97870.97
2018-06-02T02:43:21.519Z,97863.73
2018-06-02T02:45:47.818Z,97875.42
2018-06-02T02:48:14.063Z,97874.11
2018-06-02T02:50:40.387Z,97876.42
2018-06-02T02:53:06.752Z,97873.45
2018-06-02T02:55:33.007Z,97880.55
2018-06-02T02:57:59.244Z,97876.77
2018-06-02T03:00:25.515Z,97877.88
2018-06-02T03:02:51.739Z,97878.55
2018-06-02T03:05:18.017Z,97877.56
2018-06-02T03:07:44.292Z,97880.84
2018-06-02T03:10:10.535Z,97885.36
2018-06-02T03:12:36.775Z,97883.75
2018-06-02T03:15:03.071Z,97877.83
2018-06-02T03:17:29.309Z,97876.41
2018-06-02T03:19:55.557Z,97887.27
2018-06-02T03:22:21.854Z,97881.23
2018-06-02T03:24:48.098Z,97884.22
2018-06-02T03:27:14.343Z,97884.66
2018-06-02T03:29:40.628Z,97893.79
2018-06-02T03:32:06.887Z,97894.75
2018-06-02T03:34:33.124Z,97899.32
2018-06-02T03:36:59.394Z,97893.97
2018-06-02T03:39:25.638Z,97894.27
2018-06-02T03:41:51.966Z,97895.34
2018-06-02T03:44:18.238Z,97904.52
2018-06-02T03:46:44.471Z,97907.33
2018-06-02T03:49:10.706Z,97905.41
2018-06-02T03:51:36.986Z,97907.28
2018-06-02T03:54:03.243Z,97905.86
2018-06-02T03:56:29.483Z,97906.36
2018-06-02T03:58:55.768Z,97915.71
2018-06-02T04:01:22.006Z,97913.67
2018-06-02T04:03:48.282Z,97907.98
2018-06-02T04:06:14.547Z,97904.03
2018-06-02T04:08:40.781Z,97908.36
2018-06-02T04:11:07.013Z,97905.86
2018-06-02T04:13:33.298Z,97908.89
2018-06-02T04:15:59.536Z,97908.39
2018-06-02T04:18:25.815Z,97908.23
2018-06-02T04:20:52.103Z,97911.28
2018-06-02T04:23:18.374Z,97911.18
2018-06-02T04:25:44.611Z,97921.73
2018-06-02T04:28:10.906Z,97918.14
2018-06-02T04:30:37.175Z,97919.16
2018-06-02T04:33:03.419Z,97919.80
2018-06-02T04:35:29.695Z,97920.34
2018-06-02T04:37:55.935Z,97928.32
2018-06-02T04:40:22.203Z,97924.80
2018-06-02T04:42:48.475Z,97930.11
2018-06-02T04:45:14.731Z,97927.37
2018-06-02T04:47:41.008Z,97930.33
2018-06-02T04:50:07.300Z,97933.28
2018-06-02T04:52:33.551Z,97931.89
2018-06-02T04:54:59.813Z,97928.27
2018-06-02T04:57:26.077Z,97928.76
2018-06-02T04:59:52.320Z,97934.02
2018-06-02T05:02:18.561Z,97929.64
2018-06-02T05:04:44.856Z,97926.97
2018-06-02T05:07:11.095Z,97933.00
2018-06-02T05:09:37.334Z,97930.84
2018-06-02T05:12:03.599Z,97935.97
2018-06-02T05:14:29.873Z,97931.99
2018-06-02T05:16:56.110Z,97939.38
2018-06-02T05:19:22.383Z,97940.34
2018-06-02T05:21:48.623Z,97947.36
2018-06-02T05:24:14.864Z,97936.66
2018-06-02T05:26:41.146Z,97945.83
2018-06-02T05:29:07.441Z,97945.16
2018-06-02T05:31:33.695Z,97940.61
2018-06-02T05:34:00.079Z,97943.25
2018-06-02T05:36:26.415Z,97942.28
2018-06-02T05:38:52.651Z,97942.48
2018-06-02T05:41:18.962Z,97944.36
2018-06-02T05:43:45.260Z,97940.58
2018-06-02T05:46:11.491Z,97944.07
2018-06-02T05:48:37.797Z,97950.87
2018-06-02T05:51:04.100Z,97952.53
2018-06-02T05:53:30.357Z,97953.34
2018-06-02T05:55:56.639Z,97952.61
2018-06-02T05:58:22.880Z,97955.81
2018-06-02T06:00:49.124Z,97956.75
2018-06-02T06:03:15.587Z,97953.25
2018-06-02T06:05:41.835Z,97962.16
2018-06-02T06:08:08.185Z,97957.16
2018-06-02T06:10:34.466Z,97952.28
2018-06-02T06:13:00.699Z,97953.38
2018-06-02T06:15:26.969Z,97949.09
2018-06-02T06:17:53.233Z,97952.70
2018-06-02T06:20:19.495Z,97949.26
2018-06-02T06:22:45.736Z,97959.44
2018-06-02T06:25:11.999Z,97960.84
2018-06-02T06:27:38.248Z,97957.38
2018-06-02T06:30:04.519Z,97955.95
2018-06-02T06:32:30.839Z,97960.84
2018-06-02T06:34:57.079Z,97963.92
2018-06-02T06:37:23.385Z,97958.98
2018-06-02T06:39:49.646Z,97953.90
2018-06-02T06:42:15.882Z,97959.81
2018-06-02T06:44:42.228Z,97965.73
2018-06-02T06:47:08.515Z,97954.59
2018-06-02T06:49:34.828Z,97958.50
2018-06-02T06:52:01.091Z,97959.66
2018-06-02T06:54:27.378Z,97959.80
2018-06-02T06:56:53.965Z,97957.30
2018-06-02T06:59:20.204Z,97960.92
2018-06-02T07:01:46.475Z,97967.70
2018-06-02T07:04:13.863Z,97956.47
2018-06-02T07:06:40.123Z,97966.44
2018-06-02T07:09:06.463Z,97962.92
2018-06-02T07:11:32.703Z,97966.86
2018-06-02T07:13:58.948Z,97954.40
2018-06-02T07:16:25.245Z,97959.80
2018-06-02T07:18:51.482Z,97958.97
2018-06-02T07:21:17.744Z,97950.98
2018-06-02T07:23:44.012Z,97966.52
2018-06-02T07:26:10.360Z,97961.30
2018-06-02T07:28:36.626Z,97961.30
2018-06-02T07:31:02.907Z,97959.50
2018-06-02T07:33:29.152Z,97961.37
2018-06-02T07:35:55.398Z,97962.42
2018-06-02T07:38:21.670Z,97952.92
2018-06-02T07:40:47.944Z,97966.45
2018-06-02T07:43:14.193Z,97966.95
2018-06-02T07:45:40.478Z,97954.55
2018-06-02T07:48:06.725Z,97966.36
2018-06-02T07:50:32.959Z,97958.71
2018-06-02T07:52:59.259Z,97967.78
2018-06-02T07:55:25.482Z,97958.78
2018-06-02T07:57:51.731Z,97956.05
2018-06-02T08:00:17.998Z,97959.75
2018-06-02T08:02:44.236Z,97963.47
2018-06-02T08:05:10.466Z,97960.57
2018-06-02T08:07:36.747Z,97968.53
2018-06-02T08:10:03.013Z,97959.94
2018-06-02T08:12:29.251Z,97962.48
2018-06-02T08:14:55.552Z,97966.28
2018-06-02T08:17:21.798Z,97969.27
2018-06-02T08:19:48.048Z,97974.26
2018-06-02T08:22:14.322Z,97967.96
2018-06-02T08:24:40.600Z,97978.11
2018-06-02T08:27:06.843Z,97973.19
2018-06-02T08:29:33.119Z,97976.58
2018-06-02T08:31:59.359Z,97976.27
2018-06-02T08:34:25.604Z,97983.25
2018-06-02T08:36:51.867Z,97982.25
2018-06-02T08:39:18.147Z,97988.31
2018-06-02T08:41:44.396Z,97990.59
2018-06-02T08:44:10.717Z,97988.86
2018-06-02T08:46:36.958Z,97999.16
2018-06-02T08:49:03.191Z,98000.98
2018-06-02T08:51:29.476Z,97994.00
2018-06-02T08:53:55.735Z,97997.83
2018-06-02T08:56:22.009Z,97990.63
2018-06-02T08:58:48.304Z,98000.15
2018-06-02T09:01:14.543Z,98001.78
2018-06-02T09:03:40.791Z,98006.59
2018-06-02T09:06:07.069Z,98001.07
2018-06-02T09:08:33.314Z,97994.41
2018-06-02T09:10:59.543Z,97997.05
2018-06-02T09:13:25.815Z,98004.41
2018-06-02T09:15:52.077Z,98005.02
2018-06-02T09:18:18.327Z,98001.06
2018-06-02T09:20:44.611Z,98007.95
2018-06-02T09:23:10.852Z,98014.11
2018-06-02T09:25:37.113Z,98010.27
2018-06-02T09:28:03.441Z,98015.80
2018-06-02T09:30:29.702Z,98012.67
2018-06-02T09:32:55.938Z,98009.05
2018-06-02T09:35:22.222Z,98008.47
2018-06-02T09:37:48.466Z,98013.27
2018-06-02T09:40:14.747Z,98010.59
2018-06-02T09:42:41.018Z,98008.28
2018-06-02T09:45:07.263Z,98007.21
2018-06-02T09:47:33.520Z,98008.02
2018-06-02T09:49:59.797Z,98007.38
2018-06-02T09:52:26.026Z,98014.36
2018-06-02T09:54:52.263Z,98010.21
2018-06-02T09:57:18.523Z,98017.55
2018-06-02T09:59:44.784Z,98017.43
2018-06-02T10:02:11.015Z,98013.58
2018-06-02T10:04:37.325Z,98007.38
2018-06-02T10:07:03.625Z,98010.47
2018-06-02T10:09:29.879Z,98018.90
2018-06-02T10:11:56.173Z,98014.31
2018-06-02T10:14:22.407Z,98015.00
2018-06-02T10:16:48.703Z,98015.51
2018-06-02T10:19:14.969Z,98009.88
2018-06-02T10:21:41.212Z,98021.45
2018-06-02T10:24:07.470Z,98020.45
2018-06-02T10:26:33.742Z,98018.63
2018-06-02T10:28:59.996Z,98021.75
2018-06-02T10:31:26.250Z,98022.48
2018-06-02T10:33:52.606Z,98025.94
2018-06-02T10:36:18.846Z,98026.37
2018-06-02T10:38:45.143Z,98027.75
2018-06-02T10:41:11.407Z,98028.74
2018-06-02T10:43:37.664Z,98018.87
2018-06-02T10:46:03.894Z,98022.72
2018-06-02T10:48:30.193Z,98020.20
2018-06-02T10:50:56.439Z,98026.83
2018-06-02T10:53:22.675Z,98026.83
2018-06-02T10:55:48.950Z,98030.52
2018-06-02T10:58:15.199Z,98021.96
2018-06-02T11:00:41.430Z,98023.11
2018-06-02T11:03:07.715Z,98028.00
2018-06-02T11:05:33.958Z,98031.66
2018-06-02T11:08:00.209Z,98028.50
2018-06-02T11:10:26.484Z,98025.64
2018-06-02T11:12:52.767Z,98026.70
2018-06-02T11:15:18.990Z,98028.82
2018-06-02T11:17:45.282Z,98026.50
2018-06-02T11:20:11.523Z,98021.76
2018-06-02T11:22:37.760Z,98021.52
2018-06-02T11:25:04.044Z,98032.83
2018-06-02T11:27:30.287Z,98021.43
2018-06-02T11:29:56.531Z,98024.02
2018-06-02T11:32:22.798Z,98020.01
2018-06-02T11:34:49.031Z,98019.95
2018-06-02T11:37:15.272Z,98015.99
2018-06-02T11:39:41.606Z,98019.30
2018-06-02T11:42:07.863Z,98022.45
2018-06-02T11:44:34.095Z,98013.39
2018-06-02T11:47:00.368Z,98015.12
2018-06-02T11:49:26.610Z,98011.25
2018-06-02T11:51:52.838Z,98016.05
2018-06-02T11:54:19.107Z,98014.98
2018-06-02T11:56:45.340Z,98013.38
2018-06-02T11:59:11.579Z,98013.34
2018-06-02T12:01:37.856Z,98011.09
2018-06-02T12:04:04.126Z,98008.91
2018-06-02T12:06:30.419Z,98016.17
2018-06-02T12:08:56.694Z,98009.81
2018-06-02T12:11:22.946Z,98008.95
2018-06-02T12:13:49.253Z,98010.48
2018-06-02T12:16:15.507Z,98009.18
2018-06-02T12:18:41.734Z,98013.55
2018-06-02T12:21:07.975Z,98016.23
2018-06-02T12:23:34.262Z,98014.36
2018-06-02T12:26:00.499Z,98015.37
2018-06-02T12:28:26.805Z,98011.70
2018-06-02T12:30:53.052Z,98013.69
2018-06-02T12:33:19.294Z,98011.27
2018-06-02T12:35:45.582Z,98015.52
2018-06-02T12:38:11.856Z,98005.34
2018-06-02T12:40:38.101Z,98005.06
2018-06-02T12:43:04.366Z,98005.80
2018-06-02T12:45:30.637Z,98009.77
2018-06-02T12:47:56.886Z,98017.47
2018-06-02T12:50:23.143Z,98012.58
2018-06-02T12:52:49.411Z,98022.62
2018-06-02T12:55:15.675Z,98022.00
2018-06-02T12:57:41.906Z,98026.09
2018-06-02T13:00:08.196Z,98019.91
2018-06-02T13:02:34.444Z,98022.75
2018-06-02T13:05:00.691Z,98019.30
2018-06-02T13:07:26.981Z,98018.79
2018-06-02T13:09:53.217Z,98020.73
2018-06-02T13:12:19.447Z,98018.05
2018-06-02T13:14:45.715Z,98019.78
2018-06-02T13:17:11.952Z,98024.64
2018-06-02T13:19:38.179Z,98021.77
2018-06-02T13:22:04.431Z,98009.20
2018-06-02T13:24:30.692Z,98012.33
2018-06-02T13:26:56.943Z,98007.97
2018-06-02T13:29:23.227Z,98010.34
2018-06-02T13:31:49.473Z,98010.38
2018-06-02T13:34:15.702Z,97997.30
2018-06-02T13:36:41.995Z,97998.97
2018-06-02T13:39:08.231Z,98001.54
2018-06-02T13:41:34.487Z,97991.90
2018-06-02T13:44:00.768Z,97987.16
2018-06-02T13:46:27.043Z,97990.75
2018-06-02T13:48:53.299Z,97991.52
2018-06-02T13:51:19.565Z,97987.80
2018-06-02T13:53:45.807Z,97984.48
2018-06-02T13:56:12.034Z,97996.06
2018-06-02T13:58:38.306Z,97988.02
2018-06-02T14:01:04.534Z,97992.78
2018-06-02T14:03:30.768Z,97991.39
2018-06-02T14:05:57.070Z,97986.17
2018-06-02T14:08:23.327Z,97986.84
2018-06-02T14:10:49.563Z,97982.75
2018-06-02T14:13:15.817Z,97982.12
2018-06-02T14:15:42.041Z,97985.20
2018-06-02T14:18:08.286Z,97977.38
2018-06-02T14:20:34.535Z,97978.63
2018-06-02T14:23:00.766Z,97980.45
2018-06-02T14:25:27.015Z,97975.42
2018-06-02T14:27:53.278Z,97971.47
2018-06-02T14:30:19.501Z,97965.39
2018-06-02T14:32:45.750Z,97968.11
2018-06-02T14:35:12.020Z,97963.72
2018-06-02T14:37:38.273Z,97959.69
2018-06-02T14:40:04.514Z,97956.55
2018-06-02T14:42:30.775Z,97953.08
2018-06-02T14:44:57.035Z,97957.42
2018-06-02T14:47:23.287Z,97960.51
2018-06-02T14:49:49.555Z,97956.26
2018-06-02T14:52:15.793Z,97952.40
2018-06-02T14:54:42.035Z,97954.54
2018-06-02T14:57:08.499Z,97945.34
2018-06-02T14:59:34.954Z,97946.34
2018-06-02T15:02:01.261Z,97953.92
2018-06-02T15:04:27.518Z,97957.26
2018-06-02T15:06:53.757Z,97952.44
2018-06-02T15:09:19.980Z,97946.19
2018-06-02T15:11:46.238Z,97946.00
2018-06-02T15:14:12.454Z,97945.27
2018-06-02T15:16:38.670Z,97957.08
2018-06-02T15:19:04.974Z,97957.42
2018-06-02T15:21:31.202Z,97952.28
2018-06-02T15:23:57.430Z,97953.29
2018-06-02T15:26:23.913Z,97951.05
2018-06-02T15:28:50.171Z,97956.50
2018-06-02T15:31:16.591Z,97948.00
2018-06-02T15:33:42.823Z,97956.70
2018-06-02T15:36:09.059Z,97955.83
2018-06-02T15:38:35.286Z,97958.53
2018-06-02T15:41:01.574Z,97964.00
2018-06-02T15:43:27.942Z,97957.69
2018-06-02T15:45:54.216Z,97952.75
2018-06-02T15:48:20.507Z,97956.48
2018-06-02T15:50:46.760Z,97958.13
2018-06-02T15:53:13.002Z,97959.55
2018-06-02T15:55:39.290Z,97961.09
2018-06-02T15:58:05.523Z,97955.71
2018-06-02T16:00:31.751Z,97953.44
2018-06-02T16:02:58.022Z,97944.78
2018-06-02T16:05:24.242Z,97948.27
2018-06-02T16:07:50.503Z,97943.64
2018-06-02T16:10:16.758Z,97936.88
2018-06-02T16:12:43.005Z,97938.33
2018-06-02T16:15:09.387Z,97933.00
2018-06-02T16:17:35.672Z,97926.92
2018-06-02T16:20:01.904Z,97927.97
2018-06-02T16:22:28.121Z,97925.79
2018-06-02T16:24:54.538Z,97930.50
2018-06-02T16:27:20.811Z,97929.00
2018-06-02T16:29:47.039Z,97932.49
2018-06-02T16:32:13.321Z,97932.19
2018-06-02T16:34:39.566Z,97927.45
2018-06-02T16:37:05.791Z,97936.61
2018-06-02T16:39:32.040Z,97936.73
2018-06-02T16:41:58.272Z,97939.52
2018-06-02T16:44:24.511Z,97938.20
2018-06-02T16:46:50.797Z,97935.23
2018-06-02T16:49:17.011Z,97939.02
2018-06-02T16:51:43.230Z,97940.39
2018-06-02T16:54:09.482Z,97945.16
2018-06-02T16:56:35.707Z,97942.78
2018-06-02T16:59:01.942Z,97941.84
2018-06-02T17:01:28.207Z,97950.22
2018-06-02T17:03:54.434Z,97949.59
2018-06-02T17:06:20.709Z,97948.13
2018-06-02T17:08:46.927Z,97957.48
2018-06-02T17:11:13.238Z,97949.95
2018-06-02T17:13:39.466Z,97956.49
2018-06-02T17:16:05.722Z,97954.81
2018-06-02T17:18:31.946Z,97957.02
2018-06-02T17:20:58.202Z,97948.89
2018-06-02T17:23:24.467Z,97959.66
2018-06-02T17:25:50.712Z,97958.25
2018-06-02T17:28:16.947Z,97959.37
2018-06-02T17:30:43.210Z,97957.48
2018-06-02T17:33:09.469Z,97967.54
2018-06-02T17:35:35.690Z,97975.85
2018-06-02T17:38:01.984Z,97965.27
2018-06-02T17:40:28.219Z,97968.18
2018-06-02T17:42:54.461Z,97972.09
2018-06-02T17:45:20.729Z,97973.37
2018-06-02T17:47:46.973Z,97969.03
2018-06-02T17:50:13.215Z,97966.02
2018-06-02T17:52:39.492Z,97967.83
2018-06-02T17:55:05.785Z,97975.98
2018-06-02T17:57:32.040Z,97973.65
2018-06-02T17:59:58.338Z,97970.30
2018-06-02T18:02:24.568Z,97969.58
2018-06-02T18:04:50.802Z,97975.80
2018-06-02T18:07:17.067Z,97982.28
2018-06-02T18:09:43.307Z,97986.47
2018-06-02T18:12:09.567Z,97983.48
2018-06-02T18:14:35.830Z,97979.61
2018-06-02T18:17:02.069Z,97983.69
2018-06-02T18:19:28.315Z,97982.64
2018-06-02T18:21:54.611Z,97984.42
2018-06-02T18:24:20.858Z,97979.59
2018-06-02T18:26:47.092Z,97978.64
2018-06-02T18:29:13.371Z,97979.19
2018-06-02T18:31:39.610Z,97980.20
2018-06-02T18:34:05.847Z,97977.25
2018-06-02T18:36:32.136Z,97982.57
2018-06-02T18:38:58.376Z,97979.45
2018-06-02T18:41:24.611Z,97978.31
2018-06-02T18:43:50.886Z,97975.24
2018-06-02T18:46:17.119Z,97983.22
2018-06-02T18:48:43.356Z,97982.25
2018-06-02T18:51:09.642Z,97985.61
2018-06-02T18:53:35.956Z,97984.53
2018-06-02T18:56:02.203Z,97986.52
2018-06-02T18:58:28.554Z,97988.48
2018-06-02T19:00:54.920Z,97988.81
2018-06-02T19:03:21.142Z,97994.30
2018-06-02T19:05:47.429Z,98001.12
2018-06-02T19:08:13.706Z,97998.45
2018-06-02T19:10:40.011Z,98010.31
2018-06-02T19:13:06.278Z,98005.89
2018-06-02T19:15:32.519Z,98007.55
2018-06-02T19:17:58.754Z,98012.52
2018-06-02T19:20:25.106Z,98011.07
2018-06-02T19:22:51.374Z,98017.01
2018-06-02T19:25:17.619Z,98021.88
2018-06-02T19:27:43.894Z,98023.67
2018-06-02T19:30:10.166Z,98017.41
2018-06-02T19:32:36.412Z,98027.34
2018-06-02T19:35:02.751Z,98024.66
2018-06-02T19:37:28.996Z,98023.52
2018-06-02T19:39:55.290Z,98023.91
2018-06-02T19:42:21.566Z,98024.28
2018-06-02T19:44:47.808Z,98022.52
2018-06-02T19:47:14.058Z,98030.61
2018-06-02T19:49:40.418Z,98025.64
2018-06-02T19:52:06.671Z,98026.95
2018-06-02T19:54:32.915Z,98029.66
2018-06-02T19:56:59.200Z,98031.94
2018-06-02T19:59:25.490Z,98033.41
2018-06-02T20:01:51.766Z,98034.97
2018-06-02T20:04:18.051Z,98027.65
2018-06-02T20:06:44.347Z,98025.06
2018-06-02T20:09:10.619Z,98031.09
2018-06-02T20:11:36.890Z,98025.50
2018-06-02T20:14:03.138Z,98029.42
2018-06-02T20:16:29.390Z,98032.21
2018-06-02T20:18:55.679Z,98030.80
2018-06-02T20:21:22.198Z,98032.48
2018-06-02T20:23:48.599Z,98032.64
2018-06-02T20:26:14.882Z,98028.12
2018-06-02T20:28:41.145Z,98031.08
2018-06-02T20:31:07.378Z,98027.39
2018-06-02T20:33:33.918Z,98031.35
2018-06-02T20:36:00.138Z,98027.23
2018-06-02T20:38:26.571Z,98026.06
2018-06-02T20:40:52.913Z,98022.52
2018-06-02T20:43:19.302Z,98025.45
2018-06-02T20:45:45.572Z,98031.13
2018-06-02T20:48:11.870Z,98032.72
2018-06-02T20:50:38.172Z,98018.61
2018-06-02T20:53:04.423Z,98022.28
2018-06-02T20:55:30.791Z,98011.19
2018-06-02T20:57:57.048Z,98015.92
2018-06-02T21:00:23.295Z,98012.85
2018-06-02T21:02:50.036Z,98010.38
2018-06-02T21:05:16.561Z,98014.42
2018-06-02T21:07:43.477Z,98018.50
2018-06-02T21:10:09.786Z,98011.15
2018-06-02T21:12:36.233Z,98016.14
2018-06-02T21:15:02.536Z,98017.48
2018-06-02T21:17:28.810Z,98013.87
2018-06-02T21:19:55.092Z,98020.16
2018-06-02T21:22:21.387Z,98018.83
2018-06-02T21:24:48.247Z,98015.02
2018-06-02T21:27:14.550Z,98016.23
2018-06-02T21:29:40.953Z,98016.31
2018-06-02T21:32:07.271Z,98021.03
2018-06-02T21:34:33.703Z,98031.88
2018-06-02T21:36:59.969Z,98030.84
2018-06-02T21:39:26.407Z,98034.37
2018-06-02T21:41:52.719Z,98040.55
2018-06-02T21:44:18.983Z,98046.06
2018-06-02T21:46:45.665Z,98042.28
2018-06-02T21:49:11.961Z,98046.52
2018-06-02T21:51:38.391Z,98048.84
2018-06-02T21:54:04.759Z,98053.54
2018-06-02T21:56:30.987Z,98054.25
2018-06-02T21:58:57.395Z,98056.31
2018-06-02T22:01:23.699Z,98054.29
2018-06-02T22:03:50.152Z,98062.55
2018-06-02T22:06:16.450Z,98066.51
2018-06-02T22:08:43.003Z,98057.19
2018-06-02T22:11:09.319Z,98065.53
2018-06-02T22:13:35.723Z,98063.59
2018-06-02T22:16:02.108Z,98063.15
2018-06-02T22:18:28.379Z,98058.92
2018-06-02T22:20:54.862Z,98058.05
2018-06-02T22:23:21.118Z,98063.64
2018-06-02T22:25:47.367Z,98063.91
2018-06-02T22:28:13.880Z,98066.98
2018-06-02T22:30:40.226Z,98069.48
2018-06-02T22:33:06.564Z,98073.14
2018-06-02T22:35:32.831Z,98075.64
2018-06-02T22:37:59.302Z,98070.02
2018-06-02T22:40:25.608Z,98069.44
2018-06-02T22:42:52.051Z,98068.55
2018-06-02T22:45:18.329Z,98070.17
2018-06-02T22:47:44.668Z,98062.63
2018-06-02T22:50:10.905Z,98071.66
2018-06-02T22:52:37.219Z,98062.50
2018-06-02T22:55:03.528Z,98069.06
2018-06-02T22:57:29.990Z,98069.33
2018-06-02T22:59:56.541Z,98072.31
2018-06-02T23:02:22.865Z,98073.51
2018-06-02T23:04:49.402Z,98071.48
2018-06-02T23:07:15.713Z,98071.48
2018-06-02T23:09:42.035Z,98072.63
2018-06-02T23:12:08.681Z,98082.68
2018-06-02T23:14:35.083Z,98080.55
2018-06-02T23:17:01.335Z,98084.73
2018-06-02T23:19:27.578Z,98096.01
2018-06-02T23:21:53.839Z,98082.68
2018-06-02T23:24:20.066Z,98084.47
2018-06-02T23:26:46.353Z,98080.16
2018-06-02T23:29:12.591Z,98084.39
2018-06-02T23:31:38.830Z,98083.73
2018-06-02T23:34:05.151Z,98085.52
2018-06-02T23:36:31.373Z,98091.55
2018-06-02T23:38:57.645Z,98090.95
2018-06-02T23:41:23.889Z,98088.06
2018-06-02T23:43:50.145Z,98090.45
2018-06-02T23:46:16.398Z,98085.63
2018-06-02T23:48:42.643Z,98087.97
2018-06-02T23:51:08.926Z,98085.14
2018-06-02T23:53:35.174Z,98084.95
2018-06-02T23:56:01.427Z,98091.25
2018-06-02T23:58:27.698Z,98084.10
